Lake Worth, FL

8:55 AM EDT on April 27, 2015 (GMT -0400)
TWO GEMS Wind & Weather | | Change Station
CLOSE
Current Station
Personal Weather Station
Location: Lake Worth, FL
Elevation: 14 ft
Nearby Weather Stations

Elev 14 ft 26.59 °N, 80.11 °W | Updated 51 seconds ago

Partly Cloudy
Partly Cloudy
80.6 °F
Feels Like 87 °F
N
0.0
Wind Variable Wind from NE
Gusts 0.0 mph

Today
High -- | Low -- °F
--% Chance of Precip.
Yesterday
High -- | Low -- °F
Precip. -- in
6:46 AM 7:50 PM
Waxing Gibbous, 64% visible
Pressure 29.82 in
Visibility 5.0 miles
Clouds Few 600 ft
Scattered Clouds 11000 ft
Scattered Clouds 25000 ft
Heat Index 87 °F
Dew Point 77 °F
Humidity 89%
Rainfall 0.00 in
Snow Depth Not available.
UV 1 out of 12
Pollen 7.30 out of 12
Air Quality Not available.
Flu Activity Local Activity
METAR KPBI 271153Z 26012KT 5SM BR FEW006 SCT110 SCT250 25/24 A2982 RMK AO2 SLP098 T02500239 10256 20244 53019

More Conditions Fewer Conditions

Pressure 29.82 in
Visibility 5.0 miles
Clouds Few 600 ft
Scattered Clouds 11000 ft
Scattered Clouds 25000 ft
Heat Index 87 °F
Dew Point 77 °F
Humidity 89%
Rainfall 0.00 in
Snow Depth Not available.
UV 1 out of 12
Pollen 7.30 out of 12
Air Quality Not available.
Flu Activity Local Activity
METAR KPBI 271153Z 26012KT 5SM BR FEW006 SCT110 SCT250 25/24 A2982 RMK AO2 SLP098 T02500239 10256 20244 53019

More Conditions Fewer Conditions

10-Day Weather Forecast

Almanac

Astronomy

Apr. 27, 2015 Rise Set
Actual Time
Civil Twilight
Nautical Twilight
Astronomical Twilight
Moon
Length of Visible Light
Length of Day
Tomorrow will be .
, % of the Moon is Illuminated

Today's Extremes

State Highs State Lows

Community

WunderPhotos

Upload Photos

1,817,292 photos uploaded!

WunderBlogs® & News

Nearby

Air Quality

  Air Quality AQ Index Pollutant
Not available.

Snow Depth

Station Depth Elevation

Earthquake Activity

City Distance Mag. Time & Date
Minimum magnitude displayed is 2.5.

Coastal Water Temperatures

Place Temperature

Stations

Nearby Weather Stations

Station Location Temp. Windchill Dew Point Humidity Wind Precip. Elev Updated Type